Time;durP1;ratioP1;P1;durP2;ratioP2;P2;SDS_P1;SDS_P2;PMS_P1;PMS_P2;Temp;Humidity;BMP_temperature;BMP_pressure;BME280_temperature;BME280_humidity;BME280_pressure;Samples;Min_cycle;Max_cycle;Signal;HPM_P1;HPM_P2
2021/12/02 00:00:22;;;;;;;;;;;9.70;81.60;;;;;;4706628;27;19923;-70
2021/12/02 00:02:53;;;;;;;;;;;9.80;80.90;;;;;;4706935;27;19923;-69
2021/12/02 00:05:10;;;;;;;;;;;9.80;80.40;;;;;;4707039;27;19970;-72
2021/12/02 00:07:26;;;;;;;;;;;9.80;80.90;;;;;;4705290;27;19927;-71
2021/12/02 00:09:42;;;;;;;;;;;9.80;80.50;;;;;;4706801;27;20278;-71
2021/12/02 00:11:59;;;;;;;;;;;9.80;80.50;;;;;;4705265;27;19980;-70
2021/12/02 00:14:22;;;;;;;;;;;9.80;80.20;;;;;;4705298;27;19953;-72
2021/12/02 00:16:51;;;;;;;;;;;9.80;80.20;;;;;;4704907;27;19924;-68
2021/12/02 00:21:44;;;;;;;;;;;9.80;78.80;;;;;;4706295;27;19980;-69
2021/12/02 00:24:03;;;;;;;;;;;9.80;79.90;;;;;;4705593;27;19930;-71
2021/12/02 00:26:19;;;;;;;;;;;9.80;80.10;;;;;;4706196;27;19964;-70
2021/12/02 00:28:37;;;;;;;;;;;9.80;80.80;;;;;;4705996;27;19935;-70
2021/12/02 00:30:54;;;;;;;;;;;9.90;80.20;;;;;;4705090;27;19930;-68
2021/12/02 00:33:11;;;;;;;;;;;9.90;80.00;;;;;;4705078;27;19954;-68
2021/12/02 00:35:30;;;;;;;;;;;9.90;79.20;;;;;;4706065;27;19923;-69
2021/12/02 00:37:46;;;;;;;;;;;9.90;79.70;;;;;;4706691;27;19976;-69
2021/12/02 00:40:03;;;;;;;;;;;9.90;79.60;;;;;;4707593;27;20431;-68
2021/12/02 00:42:21;;;;;;;;;;;9.90;79.70;;;;;;4706803;27;19924;-67
2021/12/02 00:44:39;;;;;;;;;;;9.90;79.30;;;;;;4707332;27;20480;-69
2021/12/02 00:46:56;;;;;;;;;;;9.90;79.30;;;;;;4706849;27;19962;-69
2021/12/02 00:49:14;;;;;;;;;;;9.90;79.60;;;;;;4705881;27;19953;-68
2021/12/02 00:51:33;;;;;;;;;;;9.90;79.60;;;;;;4706536;27;20270;-69
2021/12/02 00:53:52;;;;;;;;;;;9.90;79.90;;;;;;4705846;27;20023;-69
2021/12/02 00:56:10;;;;;;;;;;;9.90;80.00;;;;;;4705200;27;20397;-69
2021/12/02 00:58:26;;;;;;;;;;;9.90;79.80;;;;;;4705735;27;19927;-69
2021/12/02 01:00:44;;;;;;;;;;;9.90;80.10;;;;;;4705220;27;19981;-68
2021/12/02 01:03:01;;;;;;;;;;;9.90;80.00;;;;;;4705333;27;19923;-68
2021/12/02 01:05:17;;;;;;;;;;;9.90;80.20;;;;;;4706224;27;20289;-68
2021/12/02 01:07:34;;;;;;;;;;;9.90;80.20;;;;;;4706408;27;19963;-68
2021/12/02 01:09:50;;;;;;;;;;;9.90;80.10;;;;;;4705009;27;19931;-68
2021/12/02 01:12:08;;;;;;;;;;;10.00;79.70;;;;;;4706574;27;20014;-69
2021/12/02 01:14:28;;;;;;;;;;;10.00;79.70;;;;;;4705305;27;19966;-70
2021/12/02 01:16:45;;;;;;;;;;;10.00;79.80;;;;;;4706406;27;19924;-71
2021/12/02 01:19:04;;;;;;;;;;;9.90;80.10;;;;;;4705403;27;19923;-71
2021/12/02 01:21:24;;;;;;;;;;;10.00;79.80;;;;;;4706181;27;19923;-70
2021/12/02 01:23:40;;;;;;;;;;;10.00;79.60;;;;;;4707026;27;20289;-70
2021/12/02 01:25:59;;;;;;;;;;;10.00;79.70;;;;;;4704601;27;19931;-70
2021/12/02 01:28:17;;;;;;;;;;;10.00;78.60;;;;;;4705159;27;20437;-71
2021/12/02 01:30:35;;;;;;;;;;;10.00;79.40;;;;;;4704547;27;20401;-69
2021/12/02 01:32:53;;;;;;;;;;;10.00;79.20;;;;;;4705183;27;19924;-71
2021/12/02 01:35:11;;;;;;;;;;;10.00;79.20;;;;;;4704495;27;20401;-70
2021/12/02 01:37:28;;;;;;;;;;;10.00;79.60;;;;;;4705063;27;20328;-70
2021/12/02 01:39:44;;;;;;;;;;;10.00;79.30;;;;;;4705788;27;19924;-73
2021/12/02 01:42:01;;;;;;;;;;;10.00;79.20;;;;;;4704844;27;19959;-70
2021/12/02 01:44:19;;;;;;;;;;;10.00;79.40;;;;;;4706057;27;19933;-70
2021/12/02 01:46:36;;;;;;;;;;;10.00;79.50;;;;;;4705481;27;20444;-70
2021/12/02 01:49:01;;;;;;;;;;;10.00;79.00;;;;;;4705212;27;20003;-71
2021/12/02 01:51:18;;;;;;;;;;;10.10;79.10;;;;;;4704550;27;19924;-70
2021/12/02 01:53:36;;;;;;;;;;;10.00;78.50;;;;;;4706009;27;19930;-68
2021/12/02 01:55:54;;;;;;;;;;;10.10;78.90;;;;;;4705892;27;20364;-70
2021/12/02 01:58:15;;;;;;;;;;;10.10;79.10;;;;;;4705974;27;20015;-70
2021/12/02 02:00:33;;;;;;;;;;;10.10;78.90;;;;;;4704177;27;20185;-69
2021/12/02 02:02:50;;;;;;;;;;;10.10;78.80;;;;;;4704721;27;19962;-71
2021/12/02 02:05:12;;;;;;;;;;;10.10;78.80;;;;;;4704015;27;19953;-71
2021/12/02 02:07:29;;;;;;;;;;;10.10;78.60;;;;;;4705974;27;19930;-69
2021/12/02 02:09:46;;;;;;;;;;;10.20;79.20;;;;;;4703888;27;20356;-70
2021/12/02 02:12:02;;;;;;;;;;;10.20;79.20;;;;;;4704410;27;19924;-70
2021/12/02 02:14:18;;;;;;;;;;;10.20;79.00;;;;;;4705208;27;19923;-71
2021/12/02 02:16:36;;;;;;;;;;;10.20;79.10;;;;;;4704388;27;19954;-71
2021/12/02 02:18:52;;;;;;;;;;;10.20;79.40;;;;;;4704075;27;19923;-69
2021/12/02 02:21:13;;;;;;;;;;;10.30;78.20;;;;;;4704273;27;20332;-70
2021/12/02 02:23:31;;;;;;;;;;;10.30;79.00;;;;;;4705308;27;19951;-70
2021/12/02 02:25:48;;;;;;;;;;;10.30;79.20;;;;;;4705427;27;19924;-71
2021/12/02 02:28:04;;;;;;;;;;;10.30;79.20;;;;;;4705478;27;19923;-71
2021/12/02 02:30:23;;;;;;;;;;;10.30;79.30;;;;;;4703791;27;20002;-71
2021/12/02 02:32:39;;;;;;;;;;;10.30;79.10;;;;;;4704105;27;19934;-70
2021/12/02 02:34:55;;;;;;;;;;;10.30;79.30;;;;;;4703695;27;19931;-70
2021/12/02 02:37:13;;;;;;;;;;;10.30;78.70;;;;;;4704099;27;19966;-70
2021/12/02 02:39:33;;;;;;;;;;;10.30;79.30;;;;;;4703535;27;19923;-69
2021/12/02 02:41:55;;;;;;;;;;;10.40;79.00;;;;;;4704165;28;19950;-69
2021/12/02 02:44:14;;;;;;;;;;;10.30;78.70;;;;;;4703682;28;20436;-69
2021/12/02 02:46:31;;;;;;;;;;;10.30;78.30;;;;;;4705567;27;19923;-69
2021/12/02 02:48:47;;;;;;;;;;;10.30;78.60;;;;;;4703532;28;19923;-69
2021/12/02 02:51:03;;;;;;;;;;;10.30;79.10;;;;;;4705321;28;19977;-69
2021/12/02 02:53:22;;;;;;;;;;;10.30;79.30;;;;;;4704682;27;19923;-69
2021/12/02 02:55:43;;;;;;;;;;;10.30;79.20;;;;;;4705551;27;19924;-69
2021/12/02 02:58:05;;;;;;;;;;;10.30;79.10;;;;;;4704822;27;19957;-69
2021/12/02 03:00:28;;;;;;;;;;;10.30;78.80;;;;;;4707067;27;20355;-70
2021/12/02 03:02:53;;;;;;;;;;;10.30;79.10;;;;;;4707785;27;20717;-71
2021/12/02 03:05:16;;;;;;;;;;;10.30;78.80;;;;;;4707609;27;20381;-72
2021/12/02 03:07:36;;;;;;;;;;;10.20;79.20;;;;;;4707852;27;19938;-72
2021/12/02 03:10:01;;;;;;;;;;;10.30;79.50;;;;;;4707110;27;19924;-71
2021/12/02 03:12:24;;;;;;;;;;;10.30;79.40;;;;;;4707625;27;19967;-71
2021/12/02 03:14:52;;;;;;;;;;;10.30;79.60;;;;;;4707138;27;19930;-71
2021/12/02 03:17:08;;;;;;;;;;;10.30;79.70;;;;;;4708884;27;19930;-72
2021/12/02 03:19:28;;;;;;;;;;;10.30;79.40;;;;;;4706971;27;19924;-71
2021/12/02 03:21:46;;;;;;;;;;;10.30;79.60;;;;;;4707540;27;19923;-71
2021/12/02 03:24:02;;;;;;;;;;;10.20;79.80;;;;;;4708231;27;20296;-71
2021/12/02 03:26:22;;;;;;;;;;;10.30;79.70;;;;;;4708388;27;19924;-71
2021/12/02 03:28:38;;;;;;;;;;;10.30;79.80;;;;;;4707124;27;20008;-70
2021/12/02 03:30:54;;;;;;;;;;;10.20;80.00;;;;;;4707055;27;20396;-71
2021/12/02 03:33:13;;;;;;;;;;;10.20;79.70;;;;;;4707195;27;20360;-71
2021/12/02 03:35:32;;;;;;;;;;;10.20;80.00;;;;;;4706771;27;20331;-71
2021/12/02 03:38:02;;;;;;;;;;;10.20;80.20;;;;;;4707392;27;20573;-70
2021/12/02 03:40:18;;;;;;;;;;;10.20;80.30;;;;;;4707918;27;19958;-71
2021/12/02 03:42:35;;;;;;;;;;;10.20;80.40;;;;;;4708378;27;20337;-71
2021/12/02 03:44:51;;;;;;;;;;;10.20;80.40;;;;;;4707828;27;19928;-71
2021/12/02 03:47:08;;;;;;;;;;;10.20;80.50;;;;;;4708406;27;19967;-71
2021/12/02 03:49:24;;;;;;;;;;;10.20;80.40;;;;;;4706440;27;19927;-71
2021/12/02 03:51:40;;;;;;;;;;;10.10;80.50;;;;;;4706946;27;19927;-71
2021/12/02 03:53:57;;;;;;;;;;;10.10;80.40;;;;;;4707643;27;19985;-71
2021/12/02 03:56:16;;;;;;;;;;;10.10;80.60;;;;;;4708436;27;19970;-71
2021/12/02 03:58:34;;;;;;;;;;;10.10;80.60;;;;;;4707690;27;20496;-71
2021/12/02 04:00:53;;;;;;;;;;;10.10;80.80;;;;;;4706859;27;19968;-71
2021/12/02 04:03:09;;;;;;;;;;;10.10;80.80;;;;;;4706429;27;20018;-71
2021/12/02 04:05:26;;;;;;;;;;;10.10;80.80;;;;;;4707853;27;19968;-71
2021/12/02 04:07:42;;;;;;;;;;;10.10;80.90;;;;;;4707814;27;20441;-70
2021/12/02 04:09:58;;;;;;;;;;;10.10;80.90;;;;;;4707554;27;19954;-72
2021/12/02 04:12:19;;;;;;;;;;;10.10;81.00;;;;;;4706780;27;20389;-72
2021/12/02 04:14:40;;;;;;;;;;;10.10;81.10;;;;;;4706036;27;20409;-71
2021/12/02 04:16:58;;;;;;;;;;;10.00;81.10;;;;;;4708189;27;19929;-71
2021/12/02 04:19:14;;;;;;;;;;;10.00;81.20;;;;;;4705972;27;19923;-71
2021/12/02 04:21:31;;;;;;;;;;;10.00;81.20;;;;;;4707818;27;19967;-72
2021/12/02 04:23:47;;;;;;;;;;;10.00;82.00;;;;;;4707170;27;19923;-71
2021/12/02 04:26:03;;;;;;;;;;;10.00;81.30;;;;;;4706206;27;19923;-72
2021/12/02 04:28:19;;;;;;;;;;;10.00;81.50;;;;;;4705688;27;19969;-71
2021/12/02 04:30:39;;;;;;;;;;;10.00;82.20;;;;;;4707496;27;20104;-71
2021/12/02 04:32:58;;;;;;;;;;;10.00;81.60;;;;;;4707248;27;19930;-71
2021/12/02 04:35:14;;;;;;;;;;;10.00;81.60;;;;;;4706228;27;19923;-71
2021/12/02 04:37:31;;;;;;;;;;;10.00;81.60;;;;;;4705959;27;19923;-71
2021/12/02 04:39:47;;;;;;;;;;;10.00;81.60;;;;;;4707323;27;20432;-71
2021/12/02 04:42:03;;;;;;;;;;;10.00;81.60;;;;;;4705673;27;20003;-72
2021/12/02 04:44:19;;;;;;;;;;;10.00;81.60;;;;;;4705856;27;19924;-72
2021/12/02 04:46:37;;;;;;;;;;;10.00;81.60;;;;;;4707197;27;19923;-72
2021/12/02 04:48:53;;;;;;;;;;;10.00;81.70;;;;;;4706964;27;19964;-72
2021/12/02 04:51:12;;;;;;;;;;;10.00;81.80;;;;;;4707147;27;20296;-71
2021/12/02 04:53:28;;;;;;;;;;;10.00;81.90;;;;;;4705765;27;19973;-72
2021/12/02 04:55:44;;;;;;;;;;;10.00;81.80;;;;;;4707152;27;19964;-71
2021/12/02 04:58:00;;;;;;;;;;;10.00;81.90;;;;;;4705218;27;19931;-72
2021/12/02 05:00:17;;;;;;;;;;;10.00;81.90;;;;;;4707042;27;20368;-72
2021/12/02 05:02:35;;;;;;;;;;;10.00;81.80;;;;;;4706406;27;19924;-69
2021/12/02 05:04:51;;;;;;;;;;;10.00;81.90;;;;;;4705697;27;20392;-72
2021/12/02 05:07:07;;;;;;;;;;;9.90;82.00;;;;;;4705048;27;19924;-71
2021/12/02 05:09:24;;;;;;;;;;;9.90;82.10;;;;;;4706878;27;19965;-71
2021/12/02 05:11:40;;;;;;;;;;;9.90;82.10;;;;;;4704897;27;19924;-71
2021/12/02 05:13:58;;;;;;;;;;;9.90;82.30;;;;;;4706854;27;19938;-71
2021/12/02 05:16:15;;;;;;;;;;;9.90;82.20;;;;;;4706266;27;19956;-70
2021/12/02 05:18:32;;;;;;;;;;;9.90;82.40;;;;;;4705433;27;19972;-71
2021/12/02 05:20:49;;;;;;;;;;;9.90;82.50;;;;;;4704903;27;20270;-71
2021/12/02 05:23:05;;;;;;;;;;;9.90;82.60;;;;;;4706678;27;19955;-70
2021/12/02 05:25:21;;;;;;;;;;;9.90;82.60;;;;;;4706234;27;19945;-70
2021/12/02 05:27:37;;;;;;;;;;;9.90;82.70;;;;;;4706223;27;19930;-71
2021/12/02 05:29:53;;;;;;;;;;;9.90;82.70;;;;;;4705019;27;20380;-70
2021/12/02 05:32:10;;;;;;;;;;;9.90;82.70;;;;;;4705945;27;19973;-72
2021/12/02 05:34:29;;;;;;;;;;;9.90;82.70;;;;;;4706489;27;19962;-71
2021/12/02 05:36:46;;;;;;;;;;;9.90;82.80;;;;;;4705698;27;19966;-72
2021/12/02 05:39:02;;;;;;;;;;;9.90;82.80;;;;;;4706417;27;19933;-70
2021/12/02 05:41:18;;;;;;;;;;;9.90;82.80;;;;;;4704470;27;20400;-72
2021/12/02 05:43:35;;;;;;;;;;;9.90;82.90;;;;;;4704765;27;19984;-72
2021/12/02 05:45:51;;;;;;;;;;;9.90;83.00;;;;;;4704364;27;19923;-71
2021/12/02 05:48:09;;;;;;;;;;;9.80;83.00;;;;;;4704930;27;20325;-71
2021/12/02 05:50:31;;;;;;;;;;;9.90;83.00;;;;;;4705630;27;19974;-72
2021/12/02 05:52:47;;;;;;;;;;;9.90;83.10;;;;;;4704942;27;19924;-71
2021/12/02 05:55:06;;;;;;;;;;;9.90;83.20;;;;;;4704319;27;19923;-71
2021/12/02 05:57:22;;;;;;;;;;;9.90;83.00;;;;;;4704692;27;19958;-71
2021/12/02 05:59:41;;;;;;;;;;;9.90;83.00;;;;;;4704174;27;19923;-71
2021/12/02 06:01:57;;;;;;;;;;;9.90;82.90;;;;;;4704628;27;20812;-71
2021/12/02 06:04:13;;;;;;;;;;;9.90;83.00;;;;;;4704427;27;20510;-70
2021/12/02 06:06:30;;;;;;;;;;;9.90;83.00;;;;;;4705712;27;20492;-71
2021/12/02 06:08:47;;;;;;;;;;;9.90;83.00;;;;;;4703856;27;20457;-71
2021/12/02 06:11:05;;;;;;;;;;;9.90;83.00;;;;;;4704058;27;19963;-72
2021/12/02 06:13:21;;;;;;;;;;;9.90;83.10;;;;;;4702658;27;20649;-71
2021/12/02 06:15:38;;;;;;;;;;;9.90;83.20;;;;;;4701665;27;19923;-71
2021/12/02 06:17:55;;;;;;;;;;;9.90;83.10;;;;;;4702745;27;20431;-72
2021/12/02 06:20:11;;;;;;;;;;;9.90;83.20;;;;;;4703671;27;19934;-71
2021/12/02 06:22:29;;;;;;;;;;;9.90;83.30;;;;;;4702953;27;20405;-71
2021/12/02 06:24:47;;;;;;;;;;;9.80;83.40;;;;;;4702417;27;20489;-71
2021/12/02 06:27:04;;;;;;;;;;;9.90;83.40;;;;;;4702644;27;19957;-72
2021/12/02 06:29:20;;;;;;;;;;;9.90;83.40;;;;;;4703650;27;19969;-71
2021/12/02 06:31:37;;;;;;;;;;;9.90;83.30;;;;;;4705346;27;19935;-71
2021/12/02 06:33:55;;;;;;;;;;;9.90;84.00;;;;;;4703478;27;19924;-71
2021/12/02 06:36:14;;;;;;;;;;;9.90;83.30;;;;;;4705154;27;19931;-71
2021/12/02 06:38:48;;;;;;;;;;;9.90;83.20;;;;;;4703701;27;19947;-72
2021/12/02 06:41:04;;;;;;;;;;;9.90;83.40;;;;;;4704121;27;20005;-72
2021/12/02 06:43:20;;;;;;;;;;;9.90;83.40;;;;;;4703768;28;19938;-72
2021/12/02 06:45:37;;;;;;;;;;;9.90;83.40;;;;;;4703609;28;19962;-72
2021/12/02 06:47:58;;;;;;;;;;;9.90;83.50;;;;;;4703849;28;19935;-71
2021/12/02 06:50:16;;;;;;;;;;;9.90;83.40;;;;;;4704723;27;19928;-71
2021/12/02 06:52:35;;;;;;;;;;;9.90;83.40;;;;;;4705286;27;19923;-72
2021/12/02 06:54:54;;;;;;;;;;;9.90;83.50;;;;;;4704651;27;19927;-71
2021/12/02 06:57:13;;;;;;;;;;;9.90;83.50;;;;;;4704035;28;19923;-72
2021/12/02 06:59:32;;;;;;;;;;;10.00;83.50;;;;;;4704720;27;20033;-71
2021/12/02 07:01:49;;;;;;;;;;;10.00;83.60;;;;;;4703917;28;19943;-70
2021/12/02 07:04:07;;;;;;;;;;;10.00;83.60;;;;;;4703402;28;19923;-72
2021/12/02 07:06:27;;;;;;;;;;;10.00;83.60;;;;;;4705209;27;19965;-71
2021/12/02 07:08:45;;;;;;;;;;;10.00;83.50;;;;;;4704608;27;19968;-72
2021/12/02 07:11:08;;;;;;;;;;;10.00;83.30;;;;;;4704033;28;19928;-71
2021/12/02 07:13:24;;;;;;;;;;;10.00;83.40;;;;;;4703519;28;19959;-71
2021/12/02 07:15:44;;;;;;;;;;;10.00;83.40;;;;;;4703693;28;19923;-71
2021/12/02 07:18:01;;;;;;;;;;;10.00;83.40;;;;;;4703642;28;20296;-72
2021/12/02 07:20:17;;;;;;;;;;;10.00;83.30;;;;;;4703487;28;19959;-71
2021/12/02 07:22:36;;;;;;;;;;;10.00;83.40;;;;;;4704955;27;20254;-72
2021/12/02 07:24:52;;;;;;;;;;;10.10;83.60;;;;;;4703329;28;19923;-71
2021/12/02 07:27:10;;;;;;;;;;;10.10;83.60;;;;;;4703636;28;20000;-71
2021/12/02 07:29:26;;;;;;;;;;;10.10;83.60;;;;;;4703085;28;20302;-72
2021/12/02 07:31:42;;;;;;;;;;;10.10;83.60;;;;;;4703802;28;19923;-70
2021/12/02 07:33:59;;;;;;;;;;;10.00;83.50;;;;;;4704468;27;19931;-72
2021/12/02 07:36:15;;;;;;;;;;;10.10;83.50;;;;;;4703720;28;19929;-72
2021/12/02 07:38:33;;;;;;;;;;;10.10;83.60;;;;;;4704387;27;20369;-72
2021/12/02 07:40:49;;;;;;;;;;;10.10;83.60;;;;;;4704937;27;19955;-70
2021/12/02 07:43:06;;;;;;;;;;;10.00;83.70;;;;;;4702991;28;19923;-71
2021/12/02 07:45:26;;;;;;;;;;;10.10;83.90;;;;;;4703622;28;20393;-71
2021/12/02 07:47:43;;;;;;;;;;;10.00;83.80;;;;;;4705238;27;19962;-71
2021/12/02 07:49:59;;;;;;;;;;;10.00;83.90;;;;;;4708185;27;20280;-71
2021/12/02 07:52:19;;;;;;;;;;;10.00;84.00;;;;;;4707729;27;19929;-71
2021/12/02 07:54:39;;;;;;;;;;;10.00;84.10;;;;;;4706652;27;20450;-70
2021/12/02 07:56:57;;;;;;;;;;;10.00;84.30;;;;;;4706599;27;19950;-70
2021/12/02 07:59:17;;;;;;;;;;;10.00;84.50;;;;;;4706498;27;20300;-69
2021/12/02 08:01:34;;;;;;;;;;;9.90;84.90;;;;;;4708049;27;19961;-72
2021/12/02 08:03:51;;;;;;;;;;;9.90;85.20;;;;;;4706354;27;19943;-70
2021/12/02 08:06:07;;;;;;;;;;;9.80;85.40;;;;;;4707893;27;19929;-70
2021/12/02 08:08:24;;;;;;;;;;;9.80;85.80;;;;;;4705907;27;19951;-70
2021/12/02 08:10:40;;;;;;;;;;;9.80;85.90;;;;;;4707889;27;20014;-71
2021/12/02 08:12:59;;;;;;;;;;;9.80;86.10;;;;;;4707126;27;19955;-70
2021/12/02 08:15:18;;;;;;;;;;;9.80;86.20;;;;;;4707848;27;20394;-70
2021/12/02 08:17:34;;;;;;;;;;;9.70;86.40;;;;;;4707294;27;19924;-71
2021/12/02 08:19:50;;;;;;;;;;;9.70;86.60;;;;;;4707805;27;20010;-71
2021/12/02 08:22:09;;;;;;;;;;;9.70;87.00;;;;;;4705943;27;19947;-71
2021/12/02 08:24:26;;;;;;;;;;;9.60;86.90;;;;;;4707587;27;19931;-71
2021/12/02 08:26:42;;;;;;;;;;;9.60;87.40;;;;;;4705691;27;19962;-71
2021/12/02 08:28:58;;;;;;;;;;;9.60;87.80;;;;;;4707616;27;19963;-72
2021/12/02 08:31:18;;;;;;;;;;;9.60;88.00;;;;;;4707091;27;19931;-71
2021/12/02 08:33:34;;;;;;;;;;;9.60;88.40;;;;;;4707262;27;19930;-71
2021/12/02 08:35:51;;;;;;;;;;;9.60;88.70;;;;;;4705804;27;20459;-71
2021/12/02 08:38:09;;;;;;;;;;;9.50;89.00;;;;;;4705709;27;19965;-71
2021/12/02 08:40:31;;;;;;;;;;;9.50;89.30;;;;;;4705927;27;19923;-71
2021/12/02 08:42:48;;;;;;;;;;;9.50;89.50;;;;;;4706725;27;19959;-71
2021/12/02 08:45:04;;;;;;;;;;;9.50;89.70;;;;;;4707135;27;20399;-71
2021/12/02 08:47:23;;;;;;;;;;;9.60;90.00;;;;;;4706604;27;19930;-71
2021/12/02 08:49:40;;;;;;;;;;;9.60;90.00;;;;;;4707203;27;19931;-71
2021/12/02 08:51:59;;;;;;;;;;;9.60;90.10;;;;;;4705418;27;20388;-71
2021/12/02 08:54:17;;;;;;;;;;;9.60;90.10;;;;;;4706026;27;19923;-72
2021/12/02 08:56:33;;;;;;;;;;;9.60;90.20;;;;;;4706599;27;19962;-71
2021/12/02 08:58:51;;;;;;;;;;;9.60;90.20;;;;;;4705519;27;19931;-71
2021/12/02 09:01:07;;;;;;;;;;;9.60;90.30;;;;;;4705510;27;19931;-72
2021/12/02 09:03:30;;;;;;;;;;;9.60;90.40;;;;;;4705541;27;19958;-72
2021/12/02 09:05:46;;;;;;;;;;;9.60;90.50;;;;;;4705100;27;19980;-72
2021/12/02 09:08:02;;;;;;;;;;;9.70;90.50;;;;;;4706828;27;19923;-71
2021/12/02 09:10:21;;;;;;;;;;;9.70;90.70;;;;;;4705039;27;20365;-72
2021/12/02 09:12:39;;;;;;;;;;;9.70;90.70;;;;;;4706506;27;19984;-72
2021/12/02 09:14:55;;;;;;;;;;;9.70;90.70;;;;;;4705215;27;19984;-71
2021/12/02 09:17:12;;;;;;;;;;;9.80;90.70;;;;;;4706352;27;20387;-72
2021/12/02 09:19:32;;;;;;;;;;;9.80;90.80;;;;;;4705267;27;19923;-72
2021/12/02 09:21:48;;;;;;;;;;;9.80;90.90;;;;;;4704950;27;19935;-72
2021/12/02 09:24:05;;;;;;;;;;;9.80;90.90;;;;;;4706640;27;19997;-72
2021/12/02 09:26:22;;;;;;;;;;;9.80;90.90;;;;;;4705976;27;19924;-73
2021/12/02 09:28:38;;;;;;;;;;;9.90;91.00;;;;;;4705252;27;19923;-72
2021/12/02 09:30:56;;;;;;;;;;;9.90;91.00;;;;;;4704487;27;19955;-72
2021/12/02 09:33:13;;;;;;;;;;;9.90;91.10;;;;;;4704985;27;19931;-72
2021/12/02 09:35:30;;;;;;;;;;;9.90;91.10;;;;;;4704470;27;19924;-71
2021/12/02 09:37:47;;;;;;;;;;;10.00;91.10;;;;;;4706316;27;19962;-72
2021/12/02 09:40:06;;;;;;;;;;;10.00;91.20;;;;;;4705678;27;20038;-72
2021/12/02 09:42:22;;;;;;;;;;;10.00;91.10;;;;;;4706184;27;20271;-72
2021/12/02 09:44:43;;;;;;;;;;;10.00;91.10;;;;;;4705803;27;19958;-72
2021/12/02 09:47:02;;;;;;;;;;;10.00;91.20;;;;;;4704669;27;19929;-72
2021/12/02 09:49:18;;;;;;;;;;;10.00;91.10;;;;;;4705805;27;20014;-72
2021/12/02 09:51:44;;;;;;;;;;;10.00;91.20;;;;;;4704665;27;20000;-72
2021/12/02 09:54:14;;;;;;;;;;;10.00;91.30;;;;;;4704718;27;20336;-73
2021/12/02 09:56:31;;;;;;;;;;;10.00;91.30;;;;;;4704346;27;19923;-73
2021/12/02 09:58:50;;;;;;;;;;;10.10;91.40;;;;;;4704752;27;19973;-73
2021/12/02 10:01:09;;;;;;;;;;;10.10;91.40;;;;;;4704171;27;19930;-72
2021/12/02 10:03:33;;;;;;;;;;;10.10;91.40;;;;;;4704682;27;19923;-73
2021/12/02 10:05:58;;;;;;;;;;;10.10;91.40;;;;;;4705528;27;19923;-72
2021/12/02 10:08:22;;;;;;;;;;;10.10;91.50;;;;;;4704513;27;19924;-72
2021/12/02 10:10:51;;;;;;;;;;;10.10;91.50;;;;;;4703431;27;19923;-72
2021/12/02 10:13:25;;;;;;;;;;;10.10;91.50;;;;;;4704367;27;19958;-72
2021/12/02 10:15:50;;;;;;;;;;;10.10;91.50;;;;;;4704292;27;19927;-72
2021/12/02 10:18:11;;;;;;;;;;;10.10;91.60;;;;;;4705396;27;20326;-72
2021/12/02 10:20:32;;;;;;;;;;;10.10;91.50;;;;;;4702466;27;19982;-72
2021/12/02 10:23:11;;;;;;;;;;;10.10;91.50;;;;;;4703026;27;19924;-72
2021/12/02 10:25:32;;;;;;;;;;;10.10;91.60;;;;;;4703526;27;20453;-72
2021/12/02 10:28:01;;;;;;;;;;;10.10;91.50;;;;;;4704106;27;20023;-72
2021/12/02 10:30:22;;;;;;;;;;;10.10;91.60;;;;;;4702749;27;21444;-72
2021/12/02 10:32:49;;;;;;;;;;;10.10;91.70;;;;;;4702962;27;19936;-73
2021/12/02 10:35:07;;;;;;;;;;;10.10;91.70;;;;;;4702681;27;19976;-73
2021/12/02 10:37:24;;;;;;;;;;;10.10;91.70;;;;;;4704624;27;20000;-72
2021/12/02 10:39:41;;;;;;;;;;;10.10;91.80;;;;;;4703908;27;19924;-72
2021/12/02 10:42:00;;;;;;;;;;;10.00;91.70;;;;;;4702712;28;19924;-72
2021/12/02 10:44:18;;;;;;;;;;;10.00;91.80;;;;;;4702847;28;19928;-72
2021/12/02 10:46:35;;;;;;;;;;;10.00;91.80;;;;;;4703073;28;20013;-72
2021/12/02 10:48:54;;;;;;;;;;;10.00;91.80;;;;;;4702436;28;19959;-72
2021/12/02 10:51:11;;;;;;;;;;;10.00;91.70;;;;;;4704084;27;19923;-72
2021/12/02 10:53:28;;;;;;;;;;;10.00;91.80;;;;;;4702506;28;20312;-72
2021/12/02 10:55:57;;;;;;;;;;;10.00;91.90;;;;;;4704168;27;19930;-72
2021/12/02 10:58:17;;;;;;;;;;;10.00;91.70;;;;;;4702693;28;19945;-72
2021/12/02 11:00:42;;;;;;;;;;;10.00;91.80;;;;;;4703408;28;19946;-72
2021/12/02 11:02:59;;;;;;;;;;;9.90;91.90;;;;;;4703770;27;19963;-72
2021/12/02 11:05:20;;;;;;;;;;;9.90;91.90;;;;;;4702638;28;19923;-72
2021/12/02 11:07:39;;;;;;;;;;;9.90;91.90;;;;;;4704442;27;20369;-73
2021/12/02 11:09:57;;;;;;;;;;;9.90;91.90;;;;;;4703825;27;19928;-72
2021/12/02 11:12:16;;;;;;;;;;;9.90;92.00;;;;;;4702732;28;19924;-72
2021/12/02 11:14:36;;;;;;;;;;;9.90;92.00;;;;;;4703756;27;20026;-72
2021/12/02 11:16:54;;;;;;;;;;;9.90;91.90;;;;;;4702666;28;20022;-72
2021/12/02 11:19:20;;;;;;;;;;;9.90;92.10;;;;;;4703628;27;19930;-72
2021/12/02 11:21:37;;;;;;;;;;;9.90;92.10;;;;;;4704314;27;19969;-72
2021/12/02 11:23:56;;;;;;;;;;;9.90;92.10;;;;;;4705206;27;20377;-72
2021/12/02 11:26:17;;;;;;;;;;;10.00;92.00;;;;;;4705532;27;19988;-72
2021/12/02 11:28:34;;;;;;;;;;;9.90;92.00;;;;;;4705833;27;19924;-72
2021/12/02 11:30:52;;;;;;;;;;;9.90;92.10;;;;;;4707770;27;19951;-73
2021/12/02 11:33:19;;;;;;;;;;;10.00;92.20;;;;;;4707262;27;20014;-72
2021/12/02 11:35:37;;;;;;;;;;;10.00;92.10;;;;;;4707253;27;19923;-71
2021/12/02 11:37:55;;;;;;;;;;;9.90;92.00;;;;;;4707222;27;19923;-72
2021/12/02 11:40:13;;;;;;;;;;;9.90;91.90;;;;;;4707328;27;19923;-72
2021/12/02 11:42:33;;;;;;;;;;;9.90;92.00;;;;;;4705768;27;19924;-72
2021/12/02 11:44:50;;;;;;;;;;;9.90;92.10;;;;;;4705559;27;19955;-72
2021/12/02 11:47:07;;;;;;;;;;;9.90;92.10;;;;;;4707497;27;19923;-72
2021/12/02 11:49:23;;;;;;;;;;;9.90;92.20;;;;;;4706788;27;20244;-72
2021/12/02 11:51:40;;;;;;;;;;;9.80;92.20;;;;;;4707291;27;20000;-72
2021/12/02 11:53:57;;;;;;;;;;;9.90;92.20;;;;;;4705437;27;19931;-72
2021/12/02 11:56:14;;;;;;;;;;;9.90;92.20;;;;;;4706895;27;20389;-72
2021/12/02 11:58:30;;;;;;;;;;;9.90;92.10;;;;;;4706961;27;19924;-72
2021/12/02 12:00:47;;;;;;;;;;;9.90;92.20;;;;;;4706703;27;20413;-72
2021/12/02 12:03:08;;;;;;;;;;;9.90;92.20;;;;;;4705064;27;19924;-72
2021/12/02 12:05:26;;;;;;;;;;;9.90;92.20;;;;;;4706969;27;19995;-72
2021/12/02 12:07:46;;;;;;;;;;;9.90;92.20;;;;;;4705419;27;20301;-72
2021/12/02 12:10:15;;;;;;;;;;;9.90;92.20;;;;;;4705468;27;19924;-71
2021/12/02 12:12:36;;;;;;;;;;;9.80;92.10;;;;;;4706604;27;20388;-73
2021/12/02 12:14:53;;;;;;;;;;;9.80;92.20;;;;;;4705302;27;19960;-72
2021/12/02 12:17:10;;;;;;;;;;;9.80;92.30;;;;;;4705187;27;20324;-72
2021/12/02 12:19:32;;;;;;;;;;;9.80;92.30;;;;;;4705146;27;19963;-72
2021/12/02 12:21:51;;;;;;;;;;;9.80;92.20;;;;;;4705611;27;19924;-74
2021/12/02 12:24:14;;;;;;;;;;;9.80;92.20;;;;;;4705100;27;19923;-72
2021/12/02 12:26:33;;;;;;;;;;;9.80;92.20;;;;;;4706465;27;19962;-72
2021/12/02 12:29:08;;;;;;;;;;;9.70;92.20;;;;;;4704639;27;20377;-72
2021/12/02 12:31:25;;;;;;;;;;;9.70;92.30;;;;;;4704978;27;20306;-72
2021/12/02 12:33:43;;;;;;;;;;;9.70;92.40;;;;;;4703970;27;19963;-72
2021/12/02 12:36:07;;;;;;;;;;;9.70;92.30;;;;;;4706189;27;19973;-72
2021/12/02 12:38:25;;;;;;;;;;;9.70;92.40;;;;;;4706258;27;19930;-72
2021/12/02 12:40:45;;;;;;;;;;;9.70;92.40;;;;;;4706444;27;19958;-72
2021/12/02 12:43:19;;;;;;;;;;;9.70;92.40;;;;;;4704795;27;19979;-72
2021/12/02 12:45:39;;;;;;;;;;;9.70;92.40;;;;;;4704565;27;20363;-72
2021/12/02 12:48:05;;;;;;;;;;;9.70;92.80;;;;;;4706643;27;19955;-72
2021/12/02 12:50:22;;;;;;;;;;;9.70;92.50;;;;;;4706638;27;19970;-72
2021/12/02 12:52:40;;;;;;;;;;;9.70;92.50;;;;;;4705921;27;20031;-72
2021/12/02 12:55:14;;;;;;;;;;;9.70;92.40;;;;;;4705164;27;19969;-73
2021/12/02 12:57:31;;;;;;;;;;;9.70;92.50;;;;;;4707023;27;20305;-73
2021/12/02 12:59:54;;;;;;;;;;;9.70;92.50;;;;;;4706730;27;20612;-72
2021/12/02 13:02:13;;;;;;;;;;;9.70;92.50;;;;;;4705691;27;19923;-72
2021/12/02 13:04:33;;;;;;;;;;;9.70;92.50;;;;;;4705388;27;19924;-72
2021/12/02 13:06:51;;;;;;;;;;;9.80;92.50;;;;;;4705377;27;19957;-72
2021/12/02 13:09:09;;;;;;;;;;;9.70;92.50;;;;;;4705460;27;20364;-72
2021/12/02 13:11:26;;;;;;;;;;;9.80;92.60;;;;;;4705254;27;19924;-71
2021/12/02 13:13:42;;;;;;;;;;;9.80;92.60;;;;;;4706515;27;19928;-72
2021/12/02 13:16:08;;;;;;;;;;;9.80;92.90;;;;;;4706246;27;20349;-72
2021/12/02 13:18:31;;;;;;;;;;;9.80;92.50;;;;;;4705389;27;19923;-72
2021/12/02 13:20:47;;;;;;;;;;;9.80;92.60;;;;;;4704851;27;19923;-72
2021/12/02 13:23:25;;;;;;;;;;;9.80;92.60;;;;;;4705491;27;20416;-72
2021/12/02 13:25:47;;;;;;;;;;;9.80;92.60;;;;;;4704835;27;19975;-72
2021/12/02 13:28:12;;;;;;;;;;;9.80;92.60;;;;;;4705109;27;19923;-72
2021/12/02 13:30:29;;;;;;;;;;;9.80;92.70;;;;;;4706304;27;19963;-72
2021/12/02 13:32:48;;;;;;;;;;;9.80;92.70;;;;;;4706008;27;20093;-71
2021/12/02 13:35:04;;;;;;;;;;;9.80;93.00;;;;;;4706258;27;19930;-71